sensor_id;sensor_type;location;lat;lon;timestamp;P1;durP1;ratioP1;P2;durP2;ratioP2
10463;SDS011;5279;42.048;24.638;2023-12-14T00:00:11;5.50;;;4.93;;
10463;SDS011;5279;42.048;24.638;2023-12-14T00:02:39;6.73;;;5.37;;
10463;SDS011;5279;42.048;24.638;2023-12-14T00:05:07;7.33;;;5.30;;
10463;SDS011;5279;42.048;24.638;2023-12-14T00:07:34;8.33;;;5.07;;
10463;SDS011;5279;42.048;24.638;2023-12-14T00:10:01;6.50;;;5.03;;
10463;SDS011;5279;42.048;24.638;2023-12-14T00:12:28;8.43;;;5.33;;
10463;SDS011;5279;42.048;24.638;2023-12-14T00:14:55;5.20;;;4.57;;
10463;SDS011;5279;42.048;24.638;2023-12-14T00:17:21;6.87;;;4.30;;
10463;SDS011;5279;42.048;24.638;2023-12-14T00:19:48;6.53;;;5.30;;
10463;SDS011;5279;42.048;24.638;2023-12-14T00:22:16;7.13;;;4.83;;
10463;SDS011;5279;42.048;24.638;2023-12-14T00:24:43;6.40;;;4.77;;
10463;SDS011;5279;42.048;24.638;2023-12-14T00:27:09;7.07;;;5.40;;
10463;SDS011;5279;42.048;24.638;2023-12-14T00:29:36;6.23;;;5.30;;
10463;SDS011;5279;42.048;24.638;2023-12-14T00:32:03;7.77;;;5.43;;
10463;SDS011;5279;42.048;24.638;2023-12-14T00:34:30;5.53;;;3.93;;
10463;SDS011;5279;42.048;24.638;2023-12-14T00:36:57;5.47;;;3.97;;
10463;SDS011;5279;42.048;24.638;2023-12-14T00:39:25;6.63;;;4.57;;
10463;SDS011;5279;42.048;24.638;2023-12-14T00:41:52;6.83;;;4.83;;
10463;SDS011;5279;42.048;24.638;2023-12-14T00:44:18;6.47;;;3.97;;
10463;SDS011;5279;42.048;24.638;2023-12-14T00:46:45;4.43;;;4.00;;
10463;SDS011;5279;42.048;24.638;2023-12-14T00:49:12;5.50;;;4.60;;
10463;SDS011;5279;42.048;24.638;2023-12-14T00:51:38;6.40;;;5.50;;
10463;SDS011;5279;42.048;24.638;2023-12-14T00:54:05;5.67;;;4.07;;
10463;SDS011;5279;42.048;24.638;2023-12-14T00:56:33;5.87;;;4.57;;
10463;SDS011;5279;42.048;24.638;2023-12-14T00:59:00;8.03;;;5.10;;
10463;SDS011;5279;42.048;24.638;2023-12-14T01:01:26;6.97;;;5.33;;
10463;SDS011;5279;42.048;24.638;2023-12-14T01:03:53;6.37;;;4.77;;
10463;SDS011;5279;42.048;24.638;2023-12-14T01:06:20;6.40;;;5.03;;
10463;SDS011;5279;42.048;24.638;2023-12-14T01:08:46;6.67;;;4.83;;
10463;SDS011;5279;42.048;24.638;2023-12-14T01:11:13;5.67;;;4.70;;
10463;SDS011;5279;42.048;24.638;2023-12-14T01:13:41;4.63;;;4.03;;
10463;SDS011;5279;42.048;24.638;2023-12-14T01:16:08;5.30;;;4.50;;
10463;SDS011;5279;42.048;24.638;2023-12-14T01:18:35;7.07;;;4.90;;
10463;SDS011;5279;42.048;24.638;2023-12-14T01:21:02;8.77;;;5.37;;
10463;SDS011;5279;42.048;24.638;2023-12-14T01:23:29;5.83;;;5.03;;
10463;SDS011;5279;42.048;24.638;2023-12-14T01:25:56;6.30;;;4.70;;
10463;SDS011;5279;42.048;24.638;2023-12-14T01:28:23;7.83;;;4.53;;
10463;SDS011;5279;42.048;24.638;2023-12-14T01:30:51;5.00;;;4.37;;
10463;SDS011;5279;42.048;24.638;2023-12-14T01:33:19;6.40;;;4.07;;
10463;SDS011;5279;42.048;24.638;2023-12-14T01:35:45;6.90;;;4.53;;
10463;SDS011;5279;42.048;24.638;2023-12-14T01:38:12;5.30;;;4.80;;
10463;SDS011;5279;42.048;24.638;2023-12-14T01:40:39;7.53;;;5.37;;
10463;SDS011;5279;42.048;24.638;2023-12-14T01:43:06;7.23;;;5.10;;
10463;SDS011;5279;42.048;24.638;2023-12-14T01:45:35;6.57;;;5.30;;
10463;SDS011;5279;42.048;24.638;2023-12-14T01:48:03;8.97;;;5.83;;
10463;SDS011;5279;42.048;24.638;2023-12-14T01:50:30;7.30;;;5.57;;
10463;SDS011;5279;42.048;24.638;2023-12-14T01:52:57;9.97;;;5.53;;
10463;SDS011;5279;42.048;24.638;2023-12-14T01:55:23;7.43;;;5.30;;
10463;SDS011;5279;42.048;24.638;2023-12-14T01:57:51;7.20;;;4.50;;
10463;SDS011;5279;42.048;24.638;2023-12-14T02:00:19;6.33;;;4.80;;
10463;SDS011;5279;42.048;24.638;2023-12-14T02:02:51;6.60;;;4.77;;
10463;SDS011;5279;42.048;24.638;2023-12-14T02:05:19;5.80;;;4.67;;
10463;SDS011;5279;42.048;24.638;2023-12-14T02:07:46;6.00;;;4.53;;
10463;SDS011;5279;42.048;24.638;2023-12-14T02:10:12;7.07;;;4.83;;
10463;SDS011;5279;42.048;24.638;2023-12-14T02:12:39;6.37;;;5.10;;
10463;SDS011;5279;42.048;24.638;2023-12-14T02:15:06;6.77;;;5.10;;
10463;SDS011;5279;42.048;24.638;2023-12-14T02:17:34;5.57;;;4.30;;
10463;SDS011;5279;42.048;24.638;2023-12-14T02:20:00;5.67;;;4.30;;
10463;SDS011;5279;42.048;24.638;2023-12-14T02:25:14;6.70;;;4.10;;
10463;SDS011;5279;42.048;24.638;2023-12-14T02:27:41;5.43;;;4.67;;
10463;SDS011;5279;42.048;24.638;2023-12-14T02:30:08;6.47;;;5.00;;
10463;SDS011;5279;42.048;24.638;2023-12-14T02:32:35;4.97;;;4.47;;
10463;SDS011;5279;42.048;24.638;2023-12-14T02:35:02;4.70;;;3.63;;
10463;SDS011;5279;42.048;24.638;2023-12-14T02:37:29;6.60;;;4.90;;
10463;SDS011;5279;42.048;24.638;2023-12-14T02:39:57;5.37;;;4.63;;
10463;SDS011;5279;42.048;24.638;2023-12-14T02:42:23;6.40;;;4.27;;
10463;SDS011;5279;42.048;24.638;2023-12-14T02:44:50;5.43;;;4.67;;
10463;SDS011;5279;42.048;24.638;2023-12-14T02:47:17;7.73;;;5.43;;
10463;SDS011;5279;42.048;24.638;2023-12-14T02:49:44;5.33;;;4.77;;
10463;SDS011;5279;42.048;24.638;2023-12-14T02:52:10;8.90;;;5.83;;
10463;SDS011;5279;42.048;24.638;2023-12-14T02:54:38;7.30;;;4.73;;
10463;SDS011;5279;42.048;24.638;2023-12-14T02:57:06;4.80;;;4.10;;
10463;SDS011;5279;42.048;24.638;2023-12-14T02:59:33;4.37;;;3.97;;
10463;SDS011;5279;42.048;24.638;2023-12-14T03:02:00;5.80;;;4.10;;
10463;SDS011;5279;42.048;24.638;2023-12-14T03:04:27;5.13;;;4.43;;
10463;SDS011;5279;42.048;24.638;2023-12-14T03:06:53;6.00;;;4.63;;
10463;SDS011;5279;42.048;24.638;2023-12-14T03:09:21;6.93;;;4.00;;
10463;SDS011;5279;42.048;24.638;2023-12-14T03:11:48;9.23;;;3.77;;
10463;SDS011;5279;42.048;24.638;2023-12-14T03:14:16;4.93;;;3.80;;
10463;SDS011;5279;42.048;24.638;2023-12-14T03:16:42;5.67;;;4.37;;
10463;SDS011;5279;42.048;24.638;2023-12-14T03:19:09;5.40;;;4.23;;
10463;SDS011;5279;42.048;24.638;2023-12-14T03:21:36;7.97;;;5.30;;
10463;SDS011;5279;42.048;24.638;2023-12-14T03:24:04;7.70;;;5.30;;
10463;SDS011;5279;42.048;24.638;2023-12-14T03:26:31;5.13;;;4.47;;
10463;SDS011;5279;42.048;24.638;2023-12-14T03:28:57;5.50;;;4.43;;
10463;SDS011;5279;42.048;24.638;2023-12-14T03:31:25;7.70;;;4.67;;
10463;SDS011;5279;42.048;24.638;2023-12-14T03:33:52;6.93;;;5.20;;
10463;SDS011;5279;42.048;24.638;2023-12-14T03:36:19;7.60;;;5.63;;
10463;SDS011;5279;42.048;24.638;2023-12-14T03:38:47;8.97;;;5.73;;
10463;SDS011;5279;42.048;24.638;2023-12-14T03:41:14;9.97;;;7.27;;
10463;SDS011;5279;42.048;24.638;2023-12-14T03:43:41;8.40;;;6.70;;
10463;SDS011;5279;42.048;24.638;2023-12-14T03:46:07;7.87;;;6.57;;
10463;SDS011;5279;42.048;24.638;2023-12-14T03:48:35;8.10;;;5.97;;
10463;SDS011;5279;42.048;24.638;2023-12-14T03:51:02;6.70;;;5.50;;
10463;SDS011;5279;42.048;24.638;2023-12-14T03:53:29;7.90;;;6.27;;
10463;SDS011;5279;42.048;24.638;2023-12-14T03:55:57;7.40;;;5.70;;
10463;SDS011;5279;42.048;24.638;2023-12-14T03:58:23;8.63;;;5.77;;
10463;SDS011;5279;42.048;24.638;2023-12-14T04:00:50;7.07;;;4.80;;
10463;SDS011;5279;42.048;24.638;2023-12-14T04:03:17;6.10;;;4.47;;
10463;SDS011;5279;42.048;24.638;2023-12-14T04:05:45;6.07;;;4.27;;
10463;SDS011;5279;42.048;24.638;2023-12-14T04:08:12;6.43;;;4.57;;
10463;SDS011;5279;42.048;24.638;2023-12-14T04:10:38;6.47;;;5.30;;
10463;SDS011;5279;42.048;24.638;2023-12-14T04:13:05;9.93;;;5.90;;
10463;SDS011;5279;42.048;24.638;2023-12-14T04:15:32;7.33;;;5.80;;
10463;SDS011;5279;42.048;24.638;2023-12-14T04:17:58;9.00;;;6.40;;
10463;SDS011;5279;42.048;24.638;2023-12-14T04:20:25;8.77;;;6.43;;
10463;SDS011;5279;42.048;24.638;2023-12-14T04:22:53;7.20;;;5.83;;
10463;SDS011;5279;42.048;24.638;2023-12-14T04:25:20;7.37;;;5.40;;
10463;SDS011;5279;42.048;24.638;2023-12-14T04:27:47;10.50;;;6.13;;
10463;SDS011;5279;42.048;24.638;2023-12-14T04:30:13;9.73;;;6.73;;
10463;SDS011;5279;42.048;24.638;2023-12-14T04:32:40;8.43;;;6.20;;
10463;SDS011;5279;42.048;24.638;2023-12-14T04:35:07;9.50;;;6.93;;
10463;SDS011;5279;42.048;24.638;2023-12-14T04:37:34;10.47;;;6.70;;
10463;SDS011;5279;42.048;24.638;2023-12-14T04:40:03;9.93;;;6.77;;
10463;SDS011;5279;42.048;24.638;2023-12-14T04:42:30;9.17;;;6.33;;
10463;SDS011;5279;42.048;24.638;2023-12-14T04:44:57;8.77;;;6.23;;
10463;SDS011;5279;42.048;24.638;2023-12-14T04:47:24;9.47;;;6.47;;
10463;SDS011;5279;42.048;24.638;2023-12-14T04:49:51;10.17;;;6.73;;
10463;SDS011;5279;42.048;24.638;2023-12-14T04:52:18;5.90;;;5.20;;
10463;SDS011;5279;42.048;24.638;2023-12-14T04:54:44;7.10;;;5.90;;
10463;SDS011;5279;42.048;24.638;2023-12-14T04:57:12;7.73;;;5.70;;
10463;SDS011;5279;42.048;24.638;2023-12-14T04:59:40;8.03;;;6.33;;
10463;SDS011;5279;42.048;24.638;2023-12-14T05:02:07;8.70;;;6.53;;
10463;SDS011;5279;42.048;24.638;2023-12-14T05:04:34;11.33;;;7.23;;
10463;SDS011;5279;42.048;24.638;2023-12-14T05:07:01;9.77;;;7.10;;
10463;SDS011;5279;42.048;24.638;2023-12-14T05:09:27;10.60;;;7.07;;
10463;SDS011;5279;42.048;24.638;2023-12-14T05:11:54;10.17;;;7.63;;
10463;SDS011;5279;42.048;24.638;2023-12-14T05:14:22;7.47;;;6.53;;
10463;SDS011;5279;42.048;24.638;2023-12-14T05:16:49;6.90;;;5.70;;
10463;SDS011;5279;42.048;24.638;2023-12-14T05:19:16;8.43;;;5.77;;
10463;SDS011;5279;42.048;24.638;2023-12-14T05:21:43;9.13;;;6.73;;
10463;SDS011;5279;42.048;24.638;2023-12-14T05:24:10;10.30;;;7.10;;
10463;SDS011;5279;42.048;24.638;2023-12-14T05:26:37;10.43;;;7.27;;
10463;SDS011;5279;42.048;24.638;2023-12-14T05:29:03;11.90;;;7.57;;
10463;SDS011;5279;42.048;24.638;2023-12-14T05:31:31;12.20;;;7.47;;
10463;SDS011;5279;42.048;24.638;2023-12-14T05:33:58;9.17;;;6.93;;
10463;SDS011;5279;42.048;24.638;2023-12-14T05:36:25;6.50;;;5.53;;
10463;SDS011;5279;42.048;24.638;2023-12-14T05:38:51;7.87;;;5.60;;
10463;SDS011;5279;42.048;24.638;2023-12-14T05:41:18;6.37;;;4.87;;
10463;SDS011;5279;42.048;24.638;2023-12-14T05:43:45;11.33;;;7.67;;
10463;SDS011;5279;42.048;24.638;2023-12-14T05:46:19;11.23;;;7.77;;
10463;SDS011;5279;42.048;24.638;2023-12-14T05:48:48;14.30;;;7.73;;
10463;SDS011;5279;42.048;24.638;2023-12-14T05:51:25;11.47;;;7.80;;
10463;SDS011;5279;42.048;24.638;2023-12-14T05:53:52;16.53;;;8.70;;
10463;SDS011;5279;42.048;24.638;2023-12-14T05:56:19;12.87;;;8.50;;
10463;SDS011;5279;42.048;24.638;2023-12-14T05:58:46;11.73;;;7.80;;
10463;SDS011;5279;42.048;24.638;2023-12-14T06:01:13;11.40;;;7.73;;
10463;SDS011;5279;42.048;24.638;2023-12-14T06:03:40;11.07;;;8.33;;
10463;SDS011;5279;42.048;24.638;2023-12-14T06:06:08;12.90;;;8.30;;
10463;SDS011;5279;42.048;24.638;2023-12-14T06:08:35;9.77;;;7.70;;
10463;SDS011;5279;42.048;24.638;2023-12-14T06:11:01;12.77;;;8.03;;
10463;SDS011;5279;42.048;24.638;2023-12-14T06:13:28;9.73;;;6.37;;
10463;SDS011;5279;42.048;24.638;2023-12-14T06:15:55;13.20;;;8.20;;
10463;SDS011;5279;42.048;24.638;2023-12-14T06:18:21;12.13;;;6.63;;
10463;SDS011;5279;42.048;24.638;2023-12-14T06:20:48;10.23;;;8.20;;
10463;SDS011;5279;42.048;24.638;2023-12-14T06:23:16;10.27;;;7.90;;
10463;SDS011;5279;42.048;24.638;2023-12-14T06:25:43;11.57;;;8.37;;
10463;SDS011;5279;42.048;24.638;2023-12-14T06:28:09;12.30;;;8.10;;
10463;SDS011;5279;42.048;24.638;2023-12-14T06:30:37;8.43;;;6.90;;
10463;SDS011;5279;42.048;24.638;2023-12-14T06:33:04;11.23;;;8.00;;
10463;SDS011;5279;42.048;24.638;2023-12-14T06:35:30;11.50;;;8.43;;
10463;SDS011;5279;42.048;24.638;2023-12-14T06:37:57;12.80;;;8.90;;
10463;SDS011;5279;42.048;24.638;2023-12-14T06:40:25;14.00;;;10.23;;
10463;SDS011;5279;42.048;24.638;2023-12-14T06:42:52;11.23;;;9.13;;
10463;SDS011;5279;42.048;24.638;2023-12-14T06:45:19;15.33;;;9.33;;
10463;SDS011;5279;42.048;24.638;2023-12-14T06:47:45;14.47;;;10.40;;
10463;SDS011;5279;42.048;24.638;2023-12-14T06:50:12;15.30;;;11.13;;
10463;SDS011;5279;42.048;24.638;2023-12-14T06:52:39;16.50;;;11.43;;
10463;SDS011;5279;42.048;24.638;2023-12-14T06:55:06;16.30;;;11.63;;
10463;SDS011;5279;42.048;24.638;2023-12-14T06:57:35;16.93;;;11.33;;
10463;SDS011;5279;42.048;24.638;2023-12-14T07:00:02;16.60;;;11.00;;
10463;SDS011;5279;42.048;24.638;2023-12-14T07:02:29;10.93;;;8.10;;
10463;SDS011;5279;42.048;24.638;2023-12-14T07:04:56;9.73;;;7.67;;
10463;SDS011;5279;42.048;24.638;2023-12-14T07:07:23;10.47;;;8.07;;
10463;SDS011;5279;42.048;24.638;2023-12-14T07:09:49;12.97;;;8.77;;
10463;SDS011;5279;42.048;24.638;2023-12-14T07:12:16;15.57;;;10.67;;
10463;SDS011;5279;42.048;24.638;2023-12-14T07:14:44;10.50;;;6.47;;
10463;SDS011;5279;42.048;24.638;2023-12-14T07:17:11;12.10;;;7.23;;
10463;SDS011;5279;42.048;24.638;2023-12-14T07:19:38;10.77;;;7.50;;
10463;SDS011;5279;42.048;24.638;2023-12-14T07:22:04;10.00;;;7.33;;
10463;SDS011;5279;42.048;24.638;2023-12-14T07:24:31;9.90;;;7.07;;
10463;SDS011;5279;42.048;24.638;2023-12-14T07:26:58;9.80;;;7.37;;
10463;SDS011;5279;42.048;24.638;2023-12-14T07:29:24;10.60;;;7.27;;
10463;SDS011;5279;42.048;24.638;2023-12-14T07:31:53;8.93;;;7.17;;
10463;SDS011;5279;42.048;24.638;2023-12-14T07:34:20;9.50;;;7.27;;
10463;SDS011;5279;42.048;24.638;2023-12-14T07:36:46;10.07;;;7.63;;
10463;SDS011;5279;42.048;24.638;2023-12-14T07:39:13;9.93;;;8.17;;
10463;SDS011;5279;42.048;24.638;2023-12-14T07:41:40;13.57;;;8.63;;
10463;SDS011;5279;42.048;24.638;2023-12-14T07:44:05;12.43;;;9.33;;
10463;SDS011;5279;42.048;24.638;2023-12-14T07:46:32;11.63;;;8.47;;
10463;SDS011;5279;42.048;24.638;2023-12-14T07:49:01;11.80;;;9.77;;
10463;SDS011;5279;42.048;24.638;2023-12-14T07:51:28;11.87;;;9.27;;
10463;SDS011;5279;42.048;24.638;2023-12-14T07:53:54;11.97;;;8.60;;
10463;SDS011;5279;42.048;24.638;2023-12-14T07:56:21;9.87;;;7.93;;
10463;SDS011;5279;42.048;24.638;2023-12-14T07:58:52;10.40;;;8.30;;
10463;SDS011;5279;42.048;24.638;2023-12-14T08:01:19;11.47;;;7.67;;
10463;SDS011;5279;42.048;24.638;2023-12-14T08:03:46;13.13;;;8.70;;
10463;SDS011;5279;42.048;24.638;2023-12-14T08:06:14;12.07;;;9.60;;
10463;SDS011;5279;42.048;24.638;2023-12-14T08:08:40;11.77;;;8.73;;
10463;SDS011;5279;42.048;24.638;2023-12-14T08:11:07;12.90;;;9.70;;
10463;SDS011;5279;42.048;24.638;2023-12-14T08:13:34;12.33;;;9.03;;
10463;SDS011;5279;42.048;24.638;2023-12-14T08:16:01;12.27;;;9.10;;
10463;SDS011;5279;42.048;24.638;2023-12-14T08:18:27;11.57;;;9.17;;
10463;SDS011;5279;42.048;24.638;2023-12-14T08:20:54;12.40;;;8.93;;
10463;SDS011;5279;42.048;24.638;2023-12-14T08:23:22;13.70;;;9.87;;
10463;SDS011;5279;42.048;24.638;2023-12-14T08:25:52;13.50;;;10.20;;
10463;SDS011;5279;42.048;24.638;2023-12-14T08:28:21;15.87;;;11.23;;
10463;SDS011;5279;42.048;24.638;2023-12-14T08:30:48;16.83;;;13.20;;
10463;SDS011;5279;42.048;24.638;2023-12-14T08:33:15;14.97;;;11.27;;
10463;SDS011;5279;42.048;24.638;2023-12-14T08:35:42;14.27;;;10.13;;
10463;SDS011;5279;42.048;24.638;2023-12-14T08:38:09;15.73;;;10.47;;
10463;SDS011;5279;42.048;24.638;2023-12-14T08:40:37;14.53;;;10.00;;
10463;SDS011;5279;42.048;24.638;2023-12-14T08:43:05;14.20;;;11.03;;
10463;SDS011;5279;42.048;24.638;2023-12-14T08:45:32;15.70;;;11.27;;
10463;SDS011;5279;42.048;24.638;2023-12-14T08:47:58;16.27;;;11.33;;
10463;SDS011;5279;42.048;24.638;2023-12-14T08:50:25;15.90;;;11.33;;
10463;SDS011;5279;42.048;24.638;2023-12-14T08:52:52;16.80;;;12.27;;
10463;SDS011;5279;42.048;24.638;2023-12-14T08:55:19;15.90;;;13.17;;
10463;SDS011;5279;42.048;24.638;2023-12-14T08:57:47;18.80;;;14.37;;
10463;SDS011;5279;42.048;24.638;2023-12-14T09:00:14;20.90;;;14.00;;
10463;SDS011;5279;42.048;24.638;2023-12-14T09:02:41;18.27;;;13.63;;
10463;SDS011;5279;42.048;24.638;2023-12-14T09:05:09;17.47;;;13.87;;
10463;SDS011;5279;42.048;24.638;2023-12-14T09:07:35;17.23;;;13.23;;
10463;SDS011;5279;42.048;24.638;2023-12-14T09:10:02;21.30;;;13.73;;
10463;SDS011;5279;42.048;24.638;2023-12-14T09:12:29;15.87;;;12.10;;
10463;SDS011;5279;42.048;24.638;2023-12-14T09:14:57;17.20;;;12.10;;
10463;SDS011;5279;42.048;24.638;2023-12-14T09:17:24;18.47;;;13.53;;
10463;SDS011;5279;42.048;24.638;2023-12-14T09:19:51;15.27;;;12.43;;
10463;SDS011;5279;42.048;24.638;2023-12-14T09:22:18;17.87;;;12.67;;
10463;SDS011;5279;42.048;24.638;2023-12-14T09:24:44;18.83;;;13.43;;
10463;SDS011;5279;42.048;24.638;2023-12-14T09:27:11;15.60;;;12.10;;
10463;SDS011;5279;42.048;24.638;2023-12-14T09:29:38;15.17;;;12.67;;
10463;SDS011;5279;42.048;24.638;2023-12-14T09:32:06;18.40;;;12.23;;
10463;SDS011;5279;42.048;24.638;2023-12-14T09:34:34;21.43;;;15.07;;
10463;SDS011;5279;42.048;24.638;2023-12-14T09:37:00;19.93;;;15.20;;
10463;SDS011;5279;42.048;24.638;2023-12-14T09:39:27;21.87;;;17.27;;
10463;SDS011;5279;42.048;24.638;2023-12-14T09:42:00;20.00;;;16.83;;
10463;SDS011;5279;42.048;24.638;2023-12-14T09:44:29;25.13;;;18.80;;
10463;SDS011;5279;42.048;24.638;2023-12-14T09:46:56;29.73;;;20.40;;
10463;SDS011;5279;42.048;24.638;2023-12-14T09:49:26;30.03;;;20.03;;
10463;SDS011;5279;42.048;24.638;2023-12-14T09:51:55;28.20;;;20.53;;
10463;SDS011;5279;42.048;24.638;2023-12-14T09:54:22;27.17;;;21.30;;
10463;SDS011;5279;42.048;24.638;2023-12-14T09:56:49;30.13;;;21.30;;
10463;SDS011;5279;42.048;24.638;2023-12-14T09:59:17;28.07;;;20.67;;
10463;SDS011;5279;42.048;24.638;2023-12-14T10:01:45;28.33;;;20.93;;
10463;SDS011;5279;42.048;24.638;2023-12-14T10:04:13;29.73;;;23.20;;
10463;SDS011;5279;42.048;24.638;2023-12-14T10:06:43;26.97;;;21.97;;
10463;SDS011;5279;42.048;24.638;2023-12-14T10:09:11;25.07;;;20.97;;
10463;SDS011;5279;42.048;24.638;2023-12-14T10:11:42;25.47;;;20.87;;
10463;SDS011;5279;42.048;24.638;2023-12-14T10:14:18;27.33;;;21.70;;
10463;SDS011;5279;42.048;24.638;2023-12-14T10:16:46;25.80;;;20.77;;
10463;SDS011;5279;42.048;24.638;2023-12-14T10:19:14;22.93;;;20.20;;
10463;SDS011;5279;42.048;24.638;2023-12-14T10:21:43;23.40;;;19.80;;
10463;SDS011;5279;42.048;24.638;2023-12-14T10:24:10;22.47;;;20.13;;
10463;SDS011;5279;42.048;24.638;2023-12-14T10:26:37;23.30;;;19.97;;
10463;SDS011;5279;42.048;24.638;2023-12-14T10:29:04;22.50;;;20.10;;
10463;SDS011;5279;42.048;24.638;2023-12-14T10:31:30;23.90;;;19.47;;
10463;SDS011;5279;42.048;24.638;2023-12-14T10:34:02;21.87;;;19.20;;
10463;SDS011;5279;42.048;24.638;2023-12-14T10:36:29;21.17;;;17.73;;
10463;SDS011;5279;42.048;24.638;2023-12-14T10:38:59;21.20;;;18.70;;
10463;SDS011;5279;42.048;24.638;2023-12-14T10:41:27;21.27;;;18.70;;
10463;SDS011;5279;42.048;24.638;2023-12-14T10:43:58;22.87;;;18.13;;
10463;SDS011;5279;42.048;24.638;2023-12-14T10:46:26;21.93;;;19.50;;
10463;SDS011;5279;42.048;24.638;2023-12-14T10:48:54;27.43;;;18.63;;
10463;SDS011;5279;42.048;24.638;2023-12-14T10:51:22;23.33;;;19.30;;
10463;SDS011;5279;42.048;24.638;2023-12-14T10:53:52;23.27;;;19.27;;
10463;SDS011;5279;42.048;24.638;2023-12-14T10:56:20;25.20;;;19.87;;
10463;SDS011;5279;42.048;24.638;2023-12-14T10:58:48;24.73;;;19.90;;
10463;SDS011;5279;42.048;24.638;2023-12-14T11:01:18;23.27;;;19.90;;
10463;SDS011;5279;42.048;24.638;2023-12-14T11:03:46;25.33;;;20.93;;
10463;SDS011;5279;42.048;24.638;2023-12-14T11:06:21;23.33;;;20.00;;
10463;SDS011;5279;42.048;24.638;2023-12-14T11:08:56;26.07;;;21.53;;
10463;SDS011;5279;42.048;24.638;2023-12-14T11:11:27;28.10;;;21.03;;
10463;SDS011;5279;42.048;24.638;2023-12-14T11:13:54;25.23;;;20.50;;
10463;SDS011;5279;42.048;24.638;2023-12-14T11:16:21;26.60;;;20.90;;
10463;SDS011;5279;42.048;24.638;2023-12-14T11:18:48;25.73;;;20.97;;
10463;SDS011;5279;42.048;24.638;2023-12-14T11:22:23;27.50;;;20.83;;
10463;SDS011;5279;42.048;24.638;2023-12-14T11:24:51;29.97;;;20.57;;
10463;SDS011;5279;42.048;24.638;2023-12-14T11:27:22;25.40;;;20.00;;
10463;SDS011;5279;42.048;24.638;2023-12-14T11:29:53;24.83;;;20.33;;
10463;SDS011;5279;42.048;24.638;2023-12-14T11:32:20;25.00;;;20.70;;
10463;SDS011;5279;42.048;24.638;2023-12-14T11:34:47;28.33;;;20.27;;
10463;SDS011;5279;42.048;24.638;2023-12-14T11:37:13;26.67;;;20.90;;
10463;SDS011;5279;42.048;24.638;2023-12-14T11:39:40;28.83;;;21.80;;
10463;SDS011;5279;42.048;24.638;2023-12-14T11:42:08;27.40;;;20.40;;
10463;SDS011;5279;42.048;24.638;2023-12-14T11:44:37;24.63;;;20.43;;
10463;SDS011;5279;42.048;24.638;2023-12-14T11:47:04;25.93;;;19.70;;
10463;SDS011;5279;42.048;24.638;2023-12-14T11:49:31;28.47;;;19.63;;
10463;SDS011;5279;42.048;24.638;2023-12-14T11:52:01;27.20;;;19.57;;
10463;SDS011;5279;42.048;24.638;2023-12-14T11:54:28;27.00;;;20.00;;
10463;SDS011;5279;42.048;24.638;2023-12-14T11:56:55;23.80;;;18.63;;
10463;SDS011;5279;42.048;24.638;2023-12-14T11:59:22;25.67;;;19.43;;
10463;SDS011;5279;42.048;24.638;2023-12-14T12:01:58;25.10;;;18.90;;
10463;SDS011;5279;42.048;24.638;2023-12-14T12:04:26;24.93;;;19.13;;
10463;SDS011;5279;42.048;24.638;2023-12-14T12:07:00;23.80;;;18.60;;
10463;SDS011;5279;42.048;24.638;2023-12-14T12:09:37;28.90;;;19.57;;
10463;SDS011;5279;42.048;24.638;2023-12-14T12:12:06;25.63;;;19.57;;
10463;SDS011;5279;42.048;24.638;2023-12-14T12:14:34;24.73;;;20.10;;
10463;SDS011;5279;42.048;24.638;2023-12-14T12:17:03;28.37;;;18.83;;
10463;SDS011;5279;42.048;24.638;2023-12-14T12:19:31;25.10;;;19.27;;
10463;SDS011;5279;42.048;24.638;2023-12-14T12:21:58;30.63;;;19.17;;
10463;SDS011;5279;42.048;24.638;2023-12-14T12:24:25;25.90;;;19.50;;
10463;SDS011;5279;42.048;24.638;2023-12-14T12:26:52;24.97;;;17.60;;
10463;SDS011;5279;42.048;24.638;2023-12-14T12:29:19;26.27;;;18.17;;
10463;SDS011;5279;42.048;24.638;2023-12-14T12:31:46;24.73;;;18.27;;
10463;SDS011;5279;42.048;24.638;2023-12-14T12:34:14;23.07;;;18.03;;
10463;SDS011;5279;42.048;24.638;2023-12-14T12:36:40;22.27;;;17.07;;
10463;SDS011;5279;42.048;24.638;2023-12-14T12:39:07;26.67;;;16.90;;
10463;SDS011;5279;42.048;24.638;2023-12-14T12:41:34;26.07;;;18.20;;
10463;SDS011;5279;42.048;24.638;2023-12-14T12:44:02;22.63;;;18.27;;
10463;SDS011;5279;42.048;24.638;2023-12-14T12:46:31;22.93;;;17.60;;
10463;SDS011;5279;42.048;24.638;2023-12-14T12:48:58;21.67;;;16.73;;
10463;SDS011;5279;42.048;24.638;2023-12-14T12:51:26;23.23;;;16.33;;
10463;SDS011;5279;42.048;24.638;2023-12-14T12:53:54;23.97;;;17.13;;
10463;SDS011;5279;42.048;24.638;2023-12-14T12:56:22;20.53;;;16.30;;
10463;SDS011;5279;42.048;24.638;2023-12-14T12:58:49;21.50;;;15.13;;
10463;SDS011;5279;42.048;24.638;2023-12-14T13:01:18;22.47;;;15.70;;
10463;SDS011;5279;42.048;24.638;2023-12-14T13:03:45;19.17;;;14.47;;
10463;SDS011;5279;42.048;24.638;2023-12-14T13:06:12;19.60;;;14.13;;
10463;SDS011;5279;42.048;24.638;2023-12-14T13:08:40;19.10;;;14.70;;
10463;SDS011;5279;42.048;24.638;2023-12-14T13:11:06;18.23;;;14.13;;
10463;SDS011;5279;42.048;24.638;2023-12-14T13:13:33;20.00;;;14.87;;
10463;SDS011;5279;42.048;24.638;2023-12-14T13:16:00;18.97;;;14.40;;
10463;SDS011;5279;42.048;24.638;2023-12-14T13:18:26;22.87;;;15.33;;
10463;SDS011;5279;42.048;24.638;2023-12-14T13:20:53;17.93;;;13.37;;
10463;SDS011;5279;42.048;24.638;2023-12-14T13:23:20;19.43;;;13.93;;
10463;SDS011;5279;42.048;24.638;2023-12-14T13:25:48;19.00;;;14.20;;
10463;SDS011;5279;42.048;24.638;2023-12-14T13:28:15;13.93;;;10.47;;
10463;SDS011;5279;42.048;24.638;2023-12-14T13:30:42;12.57;;;9.53;;
10463;SDS011;5279;42.048;24.638;2023-12-14T13:33:08;22.77;;;14.47;;
10463;SDS011;5279;42.048;24.638;2023-12-14T13:35:37;18.83;;;13.80;;
10463;SDS011;5279;42.048;24.638;2023-12-14T13:38:04;19.40;;;13.97;;
10463;SDS011;5279;42.048;24.638;2023-12-14T13:40:30;20.00;;;14.67;;
10463;SDS011;5279;42.048;24.638;2023-12-14T13:42:58;22.47;;;14.57;;
10463;SDS011;5279;42.048;24.638;2023-12-14T13:45:28;24.63;;;15.83;;
10463;SDS011;5279;42.048;24.638;2023-12-14T13:47:56;22.47;;;15.80;;
10463;SDS011;5279;42.048;24.638;2023-12-14T13:50:23;21.27;;;15.70;;
10463;SDS011;5279;42.048;24.638;2023-12-14T13:52:51;19.30;;;14.87;;
10463;SDS011;5279;42.048;24.638;2023-12-14T13:55:18;20.80;;;14.00;;
10463;SDS011;5279;42.048;24.638;2023-12-14T13:57:45;21.00;;;15.63;;
10463;SDS011;5279;42.048;24.638;2023-12-14T14:00:14;24.17;;;15.77;;
10463;SDS011;5279;42.048;24.638;2023-12-14T14:02:44;29.70;;;16.23;;
10463;SDS011;5279;42.048;24.638;2023-12-14T14:05:10;22.20;;;15.10;;
10463;SDS011;5279;42.048;24.638;2023-12-14T14:07:37;20.63;;;14.67;;
10463;SDS011;5279;42.048;24.638;2023-12-14T14:10:03;22.33;;;15.23;;
10463;SDS011;5279;42.048;24.638;2023-12-14T14:12:30;19.13;;;14.97;;
10463;SDS011;5279;42.048;24.638;2023-12-14T14:14:57;20.80;;;14.90;;
10463;SDS011;5279;42.048;24.638;2023-12-14T14:17:25;21.00;;;15.20;;
10463;SDS011;5279;42.048;24.638;2023-12-14T14:19:52;19.37;;;14.73;;
10463;SDS011;5279;42.048;24.638;2023-12-14T14:22:19;22.27;;;16.40;;
10463;SDS011;5279;42.048;24.638;2023-12-14T14:24:46;25.97;;;15.83;;
10463;SDS011;5279;42.048;24.638;2023-12-14T14:27:12;22.60;;;15.63;;
10463;SDS011;5279;42.048;24.638;2023-12-14T14:29:40;20.73;;;15.13;;
10463;SDS011;5279;42.048;24.638;2023-12-14T14:32:06;23.83;;;16.37;;
10463;SDS011;5279;42.048;24.638;2023-12-14T14:34:35;20.73;;;14.13;;
10463;SDS011;5279;42.048;24.638;2023-12-14T14:37:01;17.83;;;13.60;;